createdAt,value
2018-10-07T00:02:44.634Z,21.60
2018-10-07T00:07:49.775Z,21.40
2018-10-07T00:12:54.790Z,21.50
2018-10-07T00:17:59.663Z,21.40
2018-10-07T00:23:04.535Z,21.60
2018-10-07T00:28:09.767Z,21.50
2018-10-07T00:33:14.880Z,21.40
2018-10-07T00:38:19.918Z,21.40
2018-10-07T00:43:24.830Z,21.40
2018-10-07T00:48:29.806Z,21.60
2018-10-07T00:53:34.869Z,21.70
2018-10-07T00:58:39.964Z,21.70
2018-10-07T01:03:45.119Z,21.70
2018-10-07T01:08:50.176Z,21.70
2018-10-07T01:13:55.353Z,21.80
2018-10-07T01:19:00.233Z,21.50
2018-10-07T01:24:05.405Z,21.60
2018-10-07T01:29:10.441Z,21.60
2018-10-07T01:34:15.929Z,21.60
2018-10-07T01:39:20.996Z,21.50
2018-10-07T01:44:25.969Z,21.60
2018-10-07T01:49:30.968Z,21.70
2018-10-07T01:54:36.042Z,21.40
2018-10-07T01:59:41.225Z,21.30
2018-10-07T02:04:46.532Z,21.20
2018-10-07T02:09:51.612Z,21.00
2018-10-07T02:14:56.440Z,21.00
2018-10-07T02:20:01.475Z,21.10
2018-10-07T02:25:06.566Z,20.90
2018-10-07T02:30:11.876Z,20.60
2018-10-07T02:35:16.868Z,20.40
2018-10-07T02:40:21.932Z,20.40
2018-10-07T02:45:26.957Z,20.50
2018-10-07T02:50:31.947Z,20.60
2018-10-07T02:55:36.976Z,20.40
2018-10-07T03:00:42.041Z,20.40
2018-10-07T03:05:47.590Z,20.70
2018-10-07T03:10:52.576Z,20.80
2018-10-07T03:15:57.423Z,20.60
2018-10-07T03:21:02.638Z,20.30
2018-10-07T03:26:07.728Z,20.30
2018-10-07T03:31:13.086Z,20.00
2018-10-07T03:36:18.063Z,20.10
2018-10-07T03:41:23.422Z,20.10
2018-10-07T03:46:28.375Z,20.00
2018-10-07T03:51:33.322Z,19.90
2018-10-07T03:56:38.207Z,19.80
2018-10-07T04:01:43.355Z,19.60
2018-10-07T04:06:48.591Z,19.60
2018-10-07T04:11:53.488Z,19.70
2018-10-07T04:16:58.349Z,19.60
2018-10-07T04:22:03.335Z,19.70
2018-10-07T04:27:08.308Z,19.40
2018-10-07T04:32:13.601Z,19.40
2018-10-07T04:37:18.584Z,19.10
2018-10-07T04:42:23.552Z,18.90
2018-10-07T04:47:28.426Z,18.90
2018-10-07T04:52:33.333Z,19.10
2018-10-07T04:57:38.194Z,19.20
2018-10-07T05:02:43.835Z,19.20
2018-10-07T05:07:48.807Z,18.90
2018-10-07T05:12:53.808Z,18.80
2018-10-07T05:17:58.839Z,18.80
2018-10-07T05:23:03.815Z,18.80
2018-10-07T05:28:08.869Z,18.70
2018-10-07T05:33:13.981Z,18.70
2018-10-07T05:38:18.831Z,18.70
2018-10-07T05:43:23.713Z,18.70
2018-10-07T05:48:28.805Z,18.60
2018-10-07T05:53:33.647Z,18.40
2018-10-07T05:58:40.158Z,18.00
2018-10-07T06:03:56.956Z,17.90
2018-10-07T06:09:02.808Z,17.70
2018-10-07T06:14:12.092Z,17.70
2018-10-07T06:19:17.012Z,17.80
2018-10-07T06:24:21.998Z,17.70
2018-10-07T06:29:27.260Z,17.60
2018-10-07T06:34:32.213Z,18.00
2018-10-07T06:39:37.146Z,18.00
2018-10-07T06:44:42.244Z,18.00
2018-10-07T06:49:47.134Z,18.20
2018-10-07T06:54:52.017Z,18.00
2018-10-07T06:59:57.124Z,18.10
2018-10-07T07:05:02.144Z,18.40
2018-10-07T07:10:11.239Z,18.50
2018-10-07T07:15:17.563Z,18.40
2018-10-07T07:20:30.198Z,18.20
2018-10-07T07:25:35.772Z,18.40
2018-10-07T07:30:41.263Z,18.20
2018-10-07T07:35:46.217Z,18.00
2018-10-07T07:40:51.655Z,18.10
2018-10-07T07:45:59.548Z,18.30
2018-10-07T07:51:04.413Z,18.40
2018-10-07T07:56:11.627Z,18.20
2018-10-07T08:01:16.740Z,18.00
2018-10-07T08:06:21.831Z,18.00
2018-10-07T08:11:26.771Z,17.90
2018-10-07T08:16:31.669Z,18.00
2018-10-07T08:21:36.788Z,18.10
2018-10-07T08:26:42.000Z,18.00
2018-10-07T08:31:47.029Z,18.00
2018-10-07T08:36:52.255Z,18.00
2018-10-07T08:41:57.767Z,18.20
2018-10-07T08:47:02.727Z,18.30
2018-10-07T08:52:07.588Z,18.30
2018-10-07T08:57:12.944Z,18.30
2018-10-07T09:02:18.196Z,18.40
2018-10-07T09:07:23.504Z,18.60
2018-10-07T09:12:28.373Z,18.60
2018-10-07T09:17:34.203Z,18.60
2018-10-07T09:22:39.357Z,18.60
2018-10-07T09:27:44.426Z,18.60
2018-10-07T09:32:49.393Z,18.80
2018-10-07T09:37:54.310Z,18.90
2018-10-07T09:42:59.202Z,19.10
2018-10-07T09:48:05.782Z,19.00
2018-10-07T09:53:11.935Z,18.90
2018-10-07T09:58:16.902Z,18.70
2018-10-07T10:03:21.854Z,18.70
2018-10-07T10:08:26.898Z,18.60
2018-10-07T10:13:31.817Z,18.70
2018-10-07T10:18:45.583Z,18.40
2018-10-07T10:24:01.737Z,18.40
2018-10-07T10:29:15.852Z,18.70
2018-10-07T10:36:42.493Z,18.90
2018-10-07T10:42:56.477Z,19.00
2018-10-07T10:49:13.003Z,18.80
2018-10-07T10:54:29.476Z,18.80
2018-10-07T11:00:10.419Z,18.80
2018-10-07T11:07:34.231Z,18.70
2018-10-07T11:12:46.866Z,18.20
2018-10-07T11:18:02.017Z,17.40
2018-10-07T11:24:16.488Z,17.70
2018-10-07T11:30:30.638Z,18.30
2018-10-07T11:35:41.574Z,19.70
2018-10-07T11:40:57.700Z,20.60
2018-10-07T11:46:47.565Z,20.70
2018-10-07T11:52:02.918Z,21.40
2018-10-07T11:57:08.271Z,22.00
2018-10-07T12:02:13.440Z,22.70
2018-10-07T12:07:18.793Z,23.70
2018-10-07T12:12:24.031Z,22.40
2018-10-07T12:17:29.085Z,21.60
2018-10-07T12:22:33.947Z,21.20
2018-10-07T12:27:39.188Z,22.20
2018-10-07T12:32:44.277Z,22.10
2018-10-07T12:37:49.540Z,22.80
2018-10-07T12:42:54.916Z,22.50
2018-10-07T12:47:59.968Z,21.90
2018-10-07T12:53:05.120Z,22.10
2018-10-07T12:58:10.493Z,22.80
2018-10-07T13:03:15.814Z,22.60
2018-10-07T13:08:20.704Z,22.90
2018-10-07T13:13:25.719Z,22.60
2018-10-07T13:18:30.680Z,22.70
2018-10-07T13:23:36.239Z,23.00
2018-10-07T13:28:41.501Z,25.30
2018-10-07T13:33:46.647Z,26.10
2018-10-07T13:38:51.537Z,26.80
2018-10-07T13:43:56.583Z,26.40
2018-10-07T13:49:01.983Z,23.90
2018-10-07T13:54:07.764Z,24.70
2018-10-07T13:59:13.062Z,26.50
2018-10-07T14:04:18.068Z,25.80
2018-10-07T14:09:24.413Z,25.50
2018-10-07T14:14:29.276Z,25.90
2018-10-07T14:19:34.252Z,26.90
2018-10-07T14:24:39.479Z,26.60
2018-10-07T14:29:44.806Z,26.90
2018-10-07T14:34:50.261Z,27.10
2018-10-07T14:39:55.308Z,27.50
2018-10-07T14:45:00.489Z,27.10
2018-10-07T14:50:06.093Z,26.90
2018-10-07T14:55:12.851Z,27.60
2018-10-07T15:00:33.020Z,27.40
2018-10-07T15:05:39.772Z,27.20
2018-10-07T15:10:44.817Z,25.50
2018-10-07T15:15:49.942Z,24.10
2018-10-07T15:20:55.217Z,23.00
2018-10-07T15:26:00.356Z,22.70
2018-10-07T15:31:06.011Z,22.30
2018-10-07T15:36:13.916Z,22.20
2018-10-07T15:41:19.280Z,22.00
2018-10-07T15:46:24.404Z,22.20
2018-10-07T15:51:29.464Z,22.00
2018-10-07T15:56:34.452Z,21.70
2018-10-07T16:01:39.459Z,21.40
2018-10-07T16:06:44.601Z,21.10
2018-10-07T16:11:50.402Z,21.10
2018-10-07T16:16:55.566Z,21.00
2018-10-07T16:22:00.872Z,20.90
2018-10-07T16:27:06.079Z,21.00
2018-10-07T16:32:11.092Z,21.00
2018-10-07T16:37:16.465Z,21.00
2018-10-07T16:42:21.529Z,20.60
2018-10-07T16:47:26.511Z,20.60
2018-10-07T16:52:31.746Z,20.60
2018-10-07T16:57:37.135Z,20.50
2018-10-07T17:02:42.395Z,20.40
2018-10-07T17:07:47.692Z,20.30
2018-10-07T17:12:52.737Z,20.40
2018-10-07T17:17:58.378Z,20.30
2018-10-07T17:23:03.420Z,20.10
2018-10-07T17:28:08.356Z,20.10
2018-10-07T17:33:13.323Z,20.20
2018-10-07T17:38:19.216Z,20.20
2018-10-07T17:43:24.349Z,20.20
2018-10-07T17:48:29.565Z,19.00
2018-10-07T17:53:36.033Z,17.60
2018-10-07T17:58:41.696Z,15.80
2018-10-07T18:03:46.906Z,15.70
2018-10-07T18:08:51.916Z,15.80
2018-10-07T18:14:03.453Z,15.40
2018-10-07T18:19:09.821Z,14.90
2018-10-07T18:24:14.753Z,14.80
2018-10-07T18:29:20.737Z,14.80
2018-10-07T18:34:25.993Z,14.80
2018-10-07T18:39:31.168Z,14.80
2018-10-07T18:44:36.094Z,14.80
2018-10-07T18:49:41.872Z,15.00
2018-10-07T18:54:47.824Z,15.20
2018-10-07T18:59:53.102Z,15.20
2018-10-07T19:10:36.632Z,15.00
2018-10-07T19:15:41.942Z,15.10
2018-10-07T19:20:47.446Z,15.10
2018-10-07T19:25:53.438Z,15.20
2018-10-07T19:30:58.667Z,15.30
2018-10-07T19:36:03.948Z,15.20
2018-10-07T19:41:09.367Z,15.40
2018-10-07T19:46:15.647Z,15.40
2018-10-07T19:51:21.489Z,15.30
2018-10-07T19:56:27.143Z,15.10
2018-10-07T20:01:33.346Z,15.10
2018-10-07T20:06:38.932Z,15.10
2018-10-07T20:11:44.435Z,15.20
2018-10-07T20:16:50.365Z,15.20
2018-10-07T20:21:55.816Z,15.10
2018-10-07T20:27:00.865Z,15.20
2018-10-07T20:32:06.014Z,15.10
2018-10-07T20:37:10.928Z,15.10
2018-10-07T20:42:15.912Z,15.10
2018-10-07T20:47:20.831Z,14.80
2018-10-07T20:52:25.790Z,14.90
2018-10-07T20:57:30.789Z,14.90
2018-10-07T21:02:35.790Z,14.80
2018-10-07T21:07:40.816Z,14.90
2018-10-07T21:12:46.093Z,14.60
2018-10-07T21:17:51.174Z,14.40
2018-10-07T21:22:56.128Z,14.40
2018-10-07T21:28:01.051Z,14.40
2018-10-07T21:33:06.412Z,14.40
2018-10-07T21:38:11.324Z,14.40
2018-10-07T21:43:19.340Z,14.50
2018-10-07T21:48:24.435Z,14.60
2018-10-07T21:53:29.333Z,14.60
2018-10-07T21:58:34.475Z,14.70
2018-10-07T22:03:39.341Z,14.60
2018-10-07T22:08:44.452Z,14.70
2018-10-07T22:13:49.518Z,14.70
2018-10-07T22:18:54.669Z,14.80
2018-10-07T22:24:00.087Z,14.70
2018-10-07T22:29:06.933Z,14.70
2018-10-07T22:34:12.426Z,14.70
2018-10-07T22:39:17.299Z,14.70
2018-10-07T22:44:28.507Z,14.80
2018-10-07T22:49:33.941Z,14.80
2018-10-07T22:54:38.947Z,14.90
2018-10-07T23:21:51.029Z,15.10
2018-10-07T23:26:57.112Z,15.20
2018-10-07T23:32:02.295Z,15.00
2018-10-07T23:37:07.187Z,15.00
2018-10-07T23:42:12.171Z,15.10
2018-10-07T23:47:17.073Z,15.00
2018-10-07T23:52:21.916Z,14.90
2018-10-07T23:57:26.881Z,14.90
